Time;durP1;ratioP1;P1;durP2;ratioP2;P2;SDS_P1;SDS_P2;PMS_P1;PMS_P2;Temp;Humidity;BMP_temperature;BMP_pressure;BME280_temperature;BME280_humidity;BME280_pressure;Samples;Min_cycle;Max_cycle;Signal;HPM_P1;HPM_P2
2022/08/04 00:00:11;;;;;;;4.90;1.08;;;;;;;30.31;39.27;101016.50;5053498;28;20025;-66
2022/08/04 00:03:01;;;;;;;1.83;0.88;;;;;;;30.26;39.79;101005.38;5054756;28;20024;-65
2022/08/04 00:05:33;;;;;;;0.95;0.75;;;;;;;30.21;39.85;101010.00;5055853;28;20053;-65
2022/08/04 00:08:01;;;;;;;2.63;0.80;;;;;;;30.18;39.07;101008.56;5054568;28;20028;-65
2022/08/04 00:10:27;;;;;;;1.55;1.45;;;;;;;30.14;39.66;101010.16;5054529;28;20021;-65
2022/08/04 00:12:54;;;;;;;2.90;0.85;;;;;;;30.10;39.40;101006.22;5037861;28;20033;-65
2022/08/04 00:15:20;;;;;;;1.88;1.13;;;;;;;30.06;39.58;100996.78;5037833;28;20497;-65
2022/08/04 00:18:04;;;;;;;1.98;1.13;;;;;;;30.04;39.51;100990.66;5037804;28;20123;-66
2022/08/04 00:20:32;;;;;;;3.28;0.90;;;;;;;30.00;39.79;100995.03;5055360;28;20552;-66
2022/08/04 00:22:59;;;;;;;2.05;0.90;;;;;;;29.97;39.10;100992.75;5037607;28;20394;-65
2022/08/04 00:25:24;;;;;;;6.20;0.90;;;;;;;29.94;39.06;100985.81;5055526;28;20029;-65
2022/08/04 00:27:50;;;;;;;2.58;1.15;;;;;;;29.90;39.76;100984.63;5054331;28;20130;-65
2022/08/04 00:30:16;;;;;;;1.75;1.00;;;;;;;29.89;39.83;100994.03;5054218;28;20364;-66
2022/08/04 00:32:41;;;;;;;3.03;1.35;;;;;;;29.84;39.92;100993.13;5037490;28;20064;-65
2022/08/04 00:35:13;;;;;;;3.97;1.08;;;;;;;29.82;40.04;100993.34;5037498;28;20028;-65
2022/08/04 00:37:39;;;;;;;4.03;1.88;;;;;;;29.73;40.32;100983.75;5054017;28;20120;-66
2022/08/04 00:40:18;;;;;;;1.95;1.00;;;;;;;29.74;39.88;100990.97;5055171;28;20116;-66
2022/08/04 00:42:48;;;;;;;1.40;1.00;;;;;;;29.72;39.58;100993.16;5055180;28;20028;-66
2022/08/04 00:45:28;;;;;;;2.92;0.85;;;;;;;29.69;40.13;100988.13;5054050;28;20036;-66
2022/08/04 00:48:20;;;;;;;5.40;1.15;;;;;;;29.64;39.95;100984.47;5055015;28;20025;-65
2022/08/04 00:50:58;;;;;;;5.72;1.30;;;;;;;29.61;40.29;100984.94;5053810;28;20131;-66
2022/08/04 00:53:30;;;;;;;1.17;1.00;;;;;;;29.58;39.69;100988.22;5054951;28;20025;-65
2022/08/04 00:55:55;;;;;;;6.15;1.10;;;;;;;29.58;40.31;100978.00;5053875;28;20021;-65
2022/08/04 01:09:03;;;;;;;2.92;1.02;;;;;;;29.48;40.74;100977.84;5055270;28;20387;-65
2022/08/04 01:12:07;;;;;;;7.05;1.33;;;;;;;29.44;39.88;100971.97;5054309;28;20043;-66
2022/08/04 01:14:55;;;;;;;4.85;1.35;;;;;;;29.43;40.55;100967.53;5053411;28;20029;-66
2022/08/04 01:17:32;;;;;;;2.15;1.00;;;;;;;29.41;40.90;100966.13;5053337;28;20117;-66
2022/08/04 01:20:08;;;;;;;3.15;1.23;;;;;;;29.38;39.82;100958.31;5053197;28;20052;-65
2022/08/04 01:22:33;;;;;;;6.53;1.40;;;;;;;29.38;40.00;100961.09;5053194;28;20025;-65
2022/08/04 01:25:14;;;;;;;3.97;1.00;;;;;;;29.34;40.47;100963.50;5054322;28;20104;-66
2022/08/04 01:28:00;;;;;;;3.63;1.10;;;;;;;29.35;40.55;100956.06;5054358;28;20021;-66
2022/08/04 01:30:26;;;;;;;2.75;1.27;;;;;;;29.33;41.17;100961.84;5054201;28;20021;-65
2022/08/04 01:33:01;;;;;;;2.53;1.23;;;;;;;29.30;40.44;100956.81;5036280;28;20036;-66
2022/08/04 01:35:38;;;;;;;2.33;1.00;;;;;;;29.32;40.80;100959.31;5054147;28;20029;-66
2022/08/04 01:38:39;;;;;;;0.75;0.75;;;;;;;29.25;40.67;100950.38;5054178;28;20030;-66
2022/08/04 01:41:14;;;;;;;3.33;0.90;;;;;;;29.26;41.48;100947.34;5053605;28;20494;-66
2022/08/04 01:43:41;;;;;;;4.32;0.95;;;;;;;29.25;40.44;100944.84;5054007;28;20032;-66
2022/08/04 01:46:10;;;;;;;2.53;1.13;;;;;;;29.23;41.44;100939.56;5052883;28;20021;-65
2022/08/04 01:48:37;;;;;;;4.88;1.20;;;;;;;29.22;41.03;100939.81;5035744;28;20036;-66
2022/08/04 01:51:05;;;;;;;7.38;1.10;;;;;;;29.17;41.01;100928.66;5052768;28;20082;-65
2022/08/04 01:53:33;;;;;;;5.50;1.20;;;;;;;29.17;40.64;100928.66;5052581;28;20025;-66
2022/08/04 01:56:01;;;;;;;3.80;1.38;;;;;;;29.15;40.57;100931.66;5035992;28;20028;-66
2022/08/04 01:58:28;;;;;;;4.03;1.20;;;;;;;29.15;40.63;100930.81;5053781;28;20025;-66
2022/08/04 02:01:03;;;;;;;4.28;1.30;;;;;;;29.13;41.27;100928.31;5053643;28;20025;-66
2022/08/04 02:03:30;;;;;;;3.65;1.33;;;;;;;29.11;40.91;100919.47;5052488;28;20021;-66
2022/08/04 02:06:26;;;;;;;4.28;1.23;;;;;;;29.12;41.16;100926.63;5036006;28;20025;-66
2022/08/04 02:09:10;;;;;;;3.55;1.63;;;;;;;29.12;40.60;100925.84;5052424;28;20124;-65
2022/08/04 02:11:36;;;;;;;4.93;0.93;;;;;;;29.09;41.28;100924.38;5053564;28;20074;-66
2022/08/04 02:14:11;;;;;;;1.90;1.23;;;;;;;29.03;40.85;100917.13;5052369;28;20029;-65
2022/08/04 02:16:43;;;;;;;1.75;1.00;;;;;;;29.07;40.56;100923.78;5053413;28;20032;-66
2022/08/04 02:19:27;;;;;;;3.63;1.02;;;;;;;29.05;40.61;100920.47;5051984;28;20637;-65
2022/08/04 02:21:57;;;;;;;3.55;1.40;;;;;;;29.03;41.08;100917.13;5052820;28;20031;-65
2022/08/04 02:24:26;;;;;;;5.55;1.25;;;;;;;29.01;40.79;100919.25;5035576;28;20028;-66
2022/08/04 02:26:52;;;;;;;1.85;0.93;;;;;;;29.02;40.67;100926.47;5052162;28;20497;-66
2022/08/04 02:29:35;;;;;;;2.42;1.00;;;;;;;28.98;41.60;100914.25;5052265;28;20535;-66
2022/08/04 02:32:04;;;;;;;4.05;1.10;;;;;;;28.95;41.34;100914.72;5052140;28;20021;-67
2022/08/04 02:34:51;;;;;;;12.23;1.52;;;;;;;28.93;41.67;100910.56;5052047;28;20121;-65
2022/08/04 02:37:17;;;;;;;4.28;1.10;;;;;;;28.87;40.78;100902.19;5035404;28;20124;-66
2022/08/04 02:39:44;;;;;;;4.05;1.33;;;;;;;28.87;40.81;100909.63;5035304;28;20115;-66
2022/08/04 02:42:11;;;;;;;3.42;1.20;;;;;;;28.83;41.14;100911.22;5052011;28;20037;-66
2022/08/04 02:44:37;;;;;;;5.82;1.15;;;;;;;28.83;40.70;100902.94;5051996;28;20020;-66
2022/08/04 02:47:03;;;;;;;5.55;1.63;;;;;;;28.82;41.22;100906.78;5051942;28;20082;-66
2022/08/04 02:49:29;;;;;;;2.60;1.23;;;;;;;28.79;41.63;100896.22;5051950;28;20028;-65
2022/08/04 02:51:56;;;;;;;10.52;1.27;;;;;;;28.76;41.42;100897.56;5052009;28;20095;-65
2022/08/04 02:54:27;;;;;;;0.88;0.88;;;;;;;28.73;41.34;100894.44;5051924;28;20029;-65
2022/08/04 02:56:54;;;;;;;2.85;1.00;;;;;;;28.72;41.39;100895.56;5035116;28;20025;-66
2022/08/04 02:59:26;;;;;;;4.75;1.60;;;;;;;28.69;41.39;100904.31;5051700;28;20025;-66
2022/08/04 03:01:55;;;;;;;3.47;1.20;;;;;;;28.67;41.93;100892.72;5051858;28;20036;-66
2022/08/04 03:04:56;;;;;;;3.35;1.00;;;;;;;28.63;41.67;100895.13;5035219;28;20107;-65
2022/08/04 03:07:51;;;;;;;9.23;1.20;;;;;;;28.59;41.02;100893.88;5051862;28;20025;-65
2022/08/04 03:10:33;;;;;;;3.80;1.23;;;;;;;28.52;42.02;100889.59;5051796;28;20108;-66
2022/08/04 03:13:35;;;;;;;3.28;1.30;;;;;;;28.51;41.11;100896.19;5051795;28;20021;-66
2022/08/04 03:16:10;;;;;;;8.00;1.50;;;;;;;28.45;42.20;100891.69;5051926;28;20029;-66
2022/08/04 03:19:05;;;;;;;6.00;1.58;;;;;;;28.43;41.19;100899.34;5051488;28;20040;-65
2022/08/04 03:21:58;;;;;;;4.43;1.30;;;;;;;28.41;41.79;100898.75;5052739;28;20025;-65
2022/08/04 03:24:57;;;;;;;4.80;0.98;;;;;;;28.37;42.24;100894.81;5052869;28;20028;-65
2022/08/04 03:27:34;;;;;;;5.75;1.13;;;;;;;28.33;41.86;100888.13;5051569;28;20052;-65
2022/08/04 03:30:13;;;;;;;4.75;1.40;;;;;;;28.27;41.97;100890.78;5051477;28;20033;-66
2022/08/04 03:32:54;;;;;;;6.90;1.58;;;;;;;28.26;41.29;100889.09;5051622;28;20111;-65
2022/08/04 03:35:43;;;;;;;3.63;1.33;;;;;;;28.24;42.55;100884.91;5055210;28;20021;-68
2022/08/04 03:38:33;;;;;;;2.78;1.30;;;;;;;28.21;42.14;100886.22;5056474;28;20025;-66
2022/08/04 03:41:29;;;;;;;3.90;1.20;;;;;;;28.18;42.42;100878.44;5056339;28;20028;-66
2022/08/04 03:44:13;;;;;;;5.53;1.23;;;;;;;28.15;41.37;100880.84;5056282;28;20059;-65
2022/08/04 03:47:24;;;;;;;14.43;2.22;;;;;;;28.11;42.19;100880.50;5056271;28;20063;-66
2022/08/04 03:50:15;;;;;;;6.15;1.10;;;;;;;28.08;41.93;100881.00;5045664;28;20044;-66
2022/08/04 03:53:08;;;;;;;5.68;1.38;;;;;;;28.05;41.97;100884.25;5054795;28;20479;-66
2022/08/04 03:56:02;;;;;;;5.90;1.08;;;;;;;28.01;42.12;100876.66;5054784;28;20036;-66
2022/08/04 03:58:54;;;;;;;4.90;1.23;;;;;;;27.99;42.19;100876.06;5055951;28;20390;-67
2022/08/04 04:02:07;;;;;;;2.80;1.13;;;;;;;27.96;42.54;100877.38;5038049;28;20127;-67
2022/08/04 04:04:54;;;;;;;4.22;1.10;;;;;;;27.92;42.39;100876.19;5037076;28;20057;-66
2022/08/04 04:07:56;;;;;;;6.20;2.10;;;;;;;27.92;42.68;100876.19;5053416;28;20043;-66
2022/08/04 04:10:28;;;;;;;8.70;2.00;;;;;;;27.90;42.49;100878.34;5054754;28;20067;-65
2022/08/04 04:13:18;;;;;;;7.90;1.20;;;;;;;27.89;41.99;100881.34;5054388;28;20493;-66
2022/08/04 04:16:06;;;;;;;5.70;1.13;;;;;;;27.87;42.15;100881.59;5055720;28;20059;-65
2022/08/04 04:18:41;;;;;;;7.20;1.65;;;;;;;27.88;42.86;100883.28;5054456;28;20029;-66
2022/08/04 04:21:24;;;;;;;5.10;1.23;;;;;;;27.88;42.31;100877.75;5054378;28;20029;-65
2022/08/04 04:24:17;;;;;;;3.50;1.33;;;;;;;27.89;42.43;100878.59;5054373;28;20056;-66
2022/08/04 04:27:08;;;;;;;6.43;1.48;;;;;;;27.90;41.84;100881.09;5055560;28;20021;-65
2022/08/04 04:29:40;;;;;;;7.75;1.45;;;;;;;27.94;41.78;100884.22;5054878;28;20033;-65
2022/08/04 04:32:47;;;;;;;3.20;1.20;;;;;;;27.97;42.04;100879.06;5054063;28;20028;-65
2022/08/04 04:35:27;;;;;;;3.33;1.30;;;;;;;28.03;42.89;100878.09;5036481;28;20542;-66
2022/08/04 04:38:16;;;;;;;1.40;1.30;;;;;;;28.08;41.95;100869.97;5054986;28;20037;-66
2022/08/04 04:41:00;;;;;;;12.57;1.60;;;;;;;28.12;42.22;100881.34;5053888;28;20505;-66
2022/08/04 04:44:10;;;;;;;12.40;1.67;;;;;;;28.15;42.20;100878.94;5055445;28;20021;-65
2022/08/04 04:46:49;;;;;;;8.50;2.03;;;;;;;28.19;42.02;100877.38;5054693;28;20025;-65
2022/08/04 04:49:35;;;;;;;3.85;1.70;;;;;;;28.25;42.73;100886.59;5053816;28;20154;-66
2022/08/04 04:52:21;;;;;;;3.08;1.40;;;;;;;28.33;41.93;100883.44;5037196;28;20025;-66
2022/08/04 04:54:59;;;;;;;2.63;1.42;;;;;;;28.46;42.31;100882.31;5055012;28;20100;-66
2022/08/04 04:57:28;;;;;;;6.88;1.50;;;;;;;28.53;41.82;100883.03;5053789;28;20433;-66
2022/08/04 04:59:57;;;;;;;3.67;1.25;;;;;;;28.63;42.29;100880.47;5053707;28;20021;-66
2022/08/04 05:02:23;;;;;;;8.57;1.52;;;;;;;28.77;41.72;100873.59;5037018;28;20028;-67
2022/08/04 05:05:10;;;;;;;2.35;1.42;;;;;;;28.92;41.35;100879.41;5053684;28;20021;-66
2022/08/04 05:08:06;;;;;;;2.58;1.00;;;;;;;29.09;41.44;100884.94;5054743;28;20025;-66
2022/08/04 05:10:34;;;;;;;2.10;1.23;;;;;;;29.26;41.00;100880.25;5053721;28;20446;-66
2022/08/04 05:13:12;;;;;;;15.27;1.40;;;;;;;29.34;42.00;100875.16;5053378;28;20055;-66
2022/08/04 05:15:41;;;;;;;8.48;1.63;;;;;;;29.51;41.46;100871.59;5053257;28;20104;-66
2022/08/04 05:18:11;;;;;;;4.28;2.33;;;;;;;29.71;41.55;100869.09;5036514;28;20033;-66
2022/08/04 05:20:40;;;;;;;2.40;1.40;;;;;;;29.90;41.30;100871.34;5036297;28;20132;-65
2022/08/04 05:23:16;;;;;;;5.13;1.52;;;;;;;30.06;40.76;100866.88;5053177;28;20025;-66
2022/08/04 05:26:10;;;;;;;2.67;1.00;;;;;;;30.28;41.04;100870.47;5053190;28;20505;-66
2022/08/04 05:28:51;;;;;;;1.67;1.23;;;;;;;30.47;40.55;100877.38;5053076;28;20021;-65
2022/08/04 05:31:26;;;;;;;2.78;1.40;;;;;;;30.66;40.67;100872.31;5052877;28;20016;-65
2022/08/04 05:33:56;;;;;;;1.85;1.40;;;;;;;30.83;39.95;100866.69;5052961;28;20075;-65
2022/08/04 05:36:26;;;;;;;4.35;1.25;;;;;;;31.02;40.10;100870.78;5053035;28;20387;-65
2022/08/04 05:38:53;;;;;;;2.45;1.05;;;;;;;31.21;39.85;100874.84;5036264;28;20017;-66
2022/08/04 05:41:19;;;;;;;3.05;1.42;;;;;;;31.33;39.54;100871.88;5052823;28;20104;-65
2022/08/04 05:43:45;;;;;;;6.43;1.15;;;;;;;31.52;38.92;100865.69;5036361;28;20037;-66
2022/08/04 05:46:11;;;;;;;2.53;0.88;;;;;;;31.73;39.15;100876.91;5036171;28;20017;-65
2022/08/04 05:48:37;;;;;;;6.38;1.63;;;;;;;31.94;38.77;100871.22;5036021;28;20033;-65
2022/08/04 05:51:04;;;;;;;4.72;1.10;;;;;;;32.17;38.56;100872.75;5036130;28;20041;-65
2022/08/04 05:53:30;;;;;;;3.88;0.98;;;;;;;32.42;38.05;100866.44;5052749;28;20433;-66
2022/08/04 05:55:56;;;;;;;2.47;1.35;;;;;;;32.66;37.48;100865.75;5035841;28;20079;-65
2022/08/04 05:58:22;;;;;;;7.78;1.05;;;;;;;32.94;37.65;100869.13;5035084;28;20052;-65
2022/08/04 06:00:49;;;;;;;5.57;1.17;;;;;;;33.14;37.64;100877.50;5035768;28;20112;-65
2022/08/04 06:03:15;;;;;;;2.75;1.40;;;;;;;33.38;36.88;100873.06;5035718;28;20581;-66
2022/08/04 06:05:41;;;;;;;4.60;1.00;;;;;;;33.62;37.41;100873.31;5052356;28;20418;-66
2022/08/04 06:08:07;;;;;;;0.90;0.70;;;;;;;33.75;36.45;100868.00;5035815;28;20051;-66
2022/08/04 06:10:33;;;;;;;2.03;0.90;;;;;;;34.01;37.00;100892.97;5052416;28;20526;-65
2022/08/04 06:13:02;;;;;;;7.30;1.27;;;;;;;34.13;36.70;100890.75;5052318;28;20048;-65
2022/08/04 06:15:28;;;;;;;4.18;0.98;;;;;;;34.31;36.99;100887.34;5035890;28;20475;-66
2022/08/04 06:17:56;;;;;;;1.60;1.00;;;;;;;34.46;36.15;100884.47;5052347;28;20028;-66
2022/08/04 06:20:26;;;;;;;2.80;0.93;;;;;;;34.66;36.38;100878.84;5035378;28;20052;-66
2022/08/04 06:22:53;;;;;;;4.22;1.27;;;;;;;34.75;36.24;100881.84;5052189;28;20024;-66
2022/08/04 06:25:22;;;;;;;4.03;1.02;;;;;;;34.79;35.60;100883.75;5035664;28;20102;-65
2022/08/04 06:27:48;;;;;;;5.18;0.95;;;;;;;34.92;36.18;100893.44;5052160;28;20159;-66
2022/08/04 06:30:15;;;;;;;2.72;0.95;;;;;;;35.02;35.77;100888.63;5035712;28;20025;-66
2022/08/04 06:32:48;;;;;;;4.72;1.30;;;;;;;35.06;34.91;100878.59;5052045;28;20451;-66
2022/08/04 06:35:17;;;;;;;2.60;0.95;;;;;;;35.23;34.57;100885.72;5052093;28;20550;-66
2022/08/04 06:37:44;;;;;;;1.38;0.82;;;;;;;35.39;34.00;100888.06;5052002;28;20025;-65
2022/08/04 06:40:12;;;;;;;4.68;1.00;;;;;;;35.59;34.18;100892.66;5035164;28;20110;-65
2022/08/04 06:42:38;;;;;;;4.45;1.00;;;;;;;35.74;34.18;100889.72;5051966;28;20044;-65
2022/08/04 06:45:04;;;;;;;5.25;1.25;;;;;;;35.88;34.26;100910.19;5051754;28;20036;-65
2022/08/04 06:47:30;;;;;;;4.15;1.70;;;;;;;35.94;34.14;100911.81;5035150;28;20036;-66
2022/08/04 06:49:56;;;;;;;3.47;1.00;;;;;;;36.07;33.54;100913.91;5051749;28;20104;-66
2022/08/04 06:52:22;;;;;;;4.63;0.90;;;;;;;36.24;33.23;100904.25;5051825;28;20060;-66
2022/08/04 06:54:49;;;;;;;1.65;0.88;;;;;;;36.42;32.92;100897.88;5035171;28;20455;-66
2022/08/04 06:57:21;;;;;;;3.85;0.95;;;;;;;36.54;32.67;100898.31;5051795;28;20108;-66
2022/08/04 06:59:49;;;;;;;;;;;;;;;36.71;32.95;100898.63;5036203;28;20055;-66
2022/08/04 07:02:24;;;;;;;4.07;1.88;;;;;;;36.74;33.53;100903.63;5051695;28;19915;-65
2022/08/04 07:04:49;;;;;;;6.38;1.48;;;;;;;36.87;32.66;100897.28;5052066;28;20028;-66
2022/08/04 07:07:15;;;;;;;5.80;1.33;;;;;;;36.85;32.96;100898.72;5018552;28;20474;-66
2022/08/04 07:09:40;;;;;;;5.05;1.20;;;;;;;37.03;32.46;100909.06;5055732;28;20033;-65
2022/08/04 07:12:06;;;;;;;7.68;1.63;;;;;;;37.25;32.11;100906.47;5056872;28;20415;-66
2022/08/04 07:14:34;;;;;;;4.45;1.38;;;;;;;37.48;31.94;100897.16;5055617;28;20021;-66
2022/08/04 07:17:02;;;;;;;2.30;1.27;;;;;;;37.68;31.75;100895.97;5055578;28;20548;-65
2022/08/04 07:19:28;;;;;;;2.40;1.50;;;;;;;37.85;32.03;100904.59;5055335;28;20051;-66
2022/08/04 07:21:53;;;;;;;7.97;1.50;;;;;;;38.00;31.29;100898.72;5038771;28;20505;-65
2022/08/04 07:24:19;;;;;;;3.22;1.40;;;;;;;38.22;30.99;100895.22;5055517;28;20036;-66
2022/08/04 07:26:49;;;;;;;12.82;2.13;;;;;;;38.44;31.06;100898.94;5055314;28;20074;-65
2022/08/04 07:29:14;;;;;;;8.35;1.63;;;;;;;38.69;31.21;100899.56;5038737;28;20021;-66
2022/08/04 07:31:40;;;;;;;3.55;1.30;;;;;;;38.92;30.14;100895.66;5055354;28;20032;-66
2022/08/04 07:34:05;;;;;;;2.50;1.13;;;;;;;39.11;29.52;100895.50;5055256;28;20021;-65
2022/08/04 07:36:31;;;;;;;5.57;1.00;;;;;;;39.33;29.70;100906.75;5055237;28;20028;-65
2022/08/04 07:38:56;;;;;;;4.53;1.08;;;;;;;39.33;29.20;100901.16;5055132;28;20025;-66
2022/08/04 07:41:23;;;;;;;7.80;1.55;;;;;;;39.36;29.15;100903.31;5055279;28;20021;-66
2022/08/04 07:43:49;;;;;;;4.80;1.08;;;;;;;39.39;29.78;100902.69;5055215;28;20104;-66
2022/08/04 07:46:14;;;;;;;2.47;1.05;;;;;;;39.32;29.94;100905.91;5055076;28;20052;-66
2022/08/04 07:48:40;;;;;;;3.25;1.30;;;;;;;39.35;29.66;100913.69;5038361;28;20032;-66
2022/08/04 07:51:05;;;;;;;7.43;1.13;;;;;;;39.54;28.92;100913.47;5056138;28;20025;-65
2022/08/04 07:53:31;;;;;;;3.08;1.10;;;;;;;39.76;28.89;100907.88;5038266;28;20028;-65
2022/08/04 07:55:57;;;;;;;4.03;1.20;;;;;;;39.66;28.60;100915.72;5054908;28;20028;-65
2022/08/04 07:58:22;;;;;;;1.15;1.02;;;;;;;39.59;29.20;100919.78;5021734;28;20572;-66
2022/08/04 08:00:48;;;;;;;1.75;1.10;;;;;;;39.50;29.47;100916.13;5054739;28;20021;-66
2022/08/04 08:03:14;;;;;;;1.35;1.00;;;;;;;39.39;29.11;100908.28;5054753;28;20033;-65
2022/08/04 08:05:39;;;;;;;1.42;1.20;;;;;;;39.33;29.16;100921.59;5038031;28;20060;-66
2022/08/04 08:08:05;;;;;;;4.38;1.50;;;;;;;39.28;28.81;100921.72;5054732;28;20021;-66
2022/08/04 08:10:30;;;;;;;3.75;1.10;;;;;;;39.20;28.78;100916.88;5054585;28;20029;-66
2022/08/04 08:12:56;;;;;;;3.13;1.00;;;;;;;39.12;29.44;100920.41;5054648;28;20025;-66
2022/08/04 08:15:21;;;;;;;7.28;1.20;;;;;;;39.01;28.80;100913.38;5054545;28;20071;-66
2022/08/04 08:17:47;;;;;;;2.03;1.25;;;;;;;39.24;28.38;100906.69;5054360;28;20036;-66
2022/08/04 08:20:12;;;;;;;2.63;0.80;;;;;;;39.21;28.71;100917.69;5053199;28;20203;-66
2022/08/04 08:22:38;;;;;;;5.53;1.10;;;;;;;39.22;29.23;100913.75;5054412;28;20025;-66
2022/08/04 08:25:07;;;;;;;3.97;1.00;;;;;;;39.56;28.63;100914.00;5037563;28;20040;-66
2022/08/04 08:27:33;;;;;;;4.88;1.33;;;;;;;39.82;28.00;100923.41;5037603;28;20029;-66
2022/08/04 08:29:59;;;;;;;2.83;1.00;;;;;;;40.07;28.04;100924.72;5054182;28;20391;-65
2022/08/04 08:32:24;;;;;;;5.10;1.00;;;;;;;40.32;28.26;100915.56;5037358;28;20082;-65
2022/08/04 08:34:50;;;;;;;1.42;1.13;;;;;;;40.42;27.52;100920.91;5054092;28;20086;-67
2022/08/04 08:37:46;;;;;;;4.63;0.95;;;;;;;40.68;28.04;100921.81;5054030;28;20059;-66
2022/08/04 08:40:49;;;;;;;2.58;0.70;;;;;;;40.87;27.50;100929.13;5036631;28;20095;-67
2022/08/04 08:43:35;;;;;;;3.50;1.10;;;;;;;40.94;27.18;100921.03;5055186;28;20049;-66
2022/08/04 08:46:38;;;;;;;3.20;1.08;;;;;;;41.00;27.67;100928.16;5053937;28;20021;-66
2022/08/04 08:49:15;;;;;;;5.25;1.23;;;;;;;41.00;27.25;100934.59;5055028;28;20426;-66
2022/08/04 08:52:14;;;;;;;0.95;0.80;;;;;;;41.07;26.95;100931.31;5053714;28;20021;-67
2022/08/04 08:54:51;;;;;;;3.90;0.98;;;;;;;41.05;27.18;100940.06;5053536;28;20065;-66
2022/08/04 08:57:29;;;;;;;4.32;1.15;;;;;;;41.27;26.61;100930.63;5053617;28;20130;-67
2022/08/04 09:00:15;;;;;;;5.60;1.48;;;;;;;41.76;26.38;100932.09;5054728;28;20032;-66
2022/08/04 09:03:02;;;;;;;3.35;1.30;;;;;;;41.97;26.35;100933.03;5053465;28;20049;-66
2022/08/04 09:05:46;;;;;;;2.30;0.80;;;;;;;42.26;26.00;100943.53;5053390;28;20029;-66
2022/08/04 09:08:21;;;;;;;1.25;0.95;;;;;;;42.52;26.01;100947.06;5053346;28;20025;-66
2022/08/04 09:10:49;;;;;;;1.05;0.82;;;;;;;42.80;25.73;100942.56;5054615;28;20040;-67
2022/08/04 09:13:26;;;;;;;5.72;1.00;;;;;;;43.13;25.56;100947.50;5053488;28;20025;-66
2022/08/04 09:16:11;;;;;;;1.80;0.98;;;;;;;43.43;25.01;100951.91;5036841;28;20021;-66
2022/08/04 09:18:37;;;;;;;12.20;0.98;;;;;;;43.68;24.88;100956.47;5053256;28;20032;-65
2022/08/04 09:21:15;;;;;;;2.30;0.82;;;;;;;43.44;24.97;100954.38;5053111;28;20028;-65
2022/08/04 09:23:56;;;;;;;4.85;1.20;;;;;;;43.16;25.31;100958.09;5036596;28;20509;-65
2022/08/04 09:26:45;;;;;;;2.80;1.10;;;;;;;42.98;25.40;100956.56;5054418;28;20052;-65
2022/08/04 09:29:23;;;;;;;2.60;0.80;;;;;;;42.67;25.36;100960.56;5054278;28;20016;-66
2022/08/04 09:32:07;;;;;;;1.75;1.08;;;;;;;42.47;25.39;100972.59;5054228;28;20090;-66
2022/08/04 09:34:56;;;;;;;4.57;1.20;;;;;;;42.19;25.61;100979.84;5053054;28;20501;-66
2022/08/04 09:37:30;;;;;;;4.45;0.75;;;;;;;41.90;25.79;100976.94;5036190;28;20103;-66
2022/08/04 09:40:02;;;;;;;7.63;1.05;;;;;;;41.62;25.96;100971.69;5053970;28;20033;-66
2022/08/04 09:42:37;;;;;;;7.13;1.20;;;;;;;41.35;25.59;100976.84;5052735;28;20402;-66
2022/08/04 09:45:09;;;;;;;2.38;0.77;;;;;;;41.13;25.90;100989.03;5052801;28;20025;-66
2022/08/04 09:47:43;;;;;;;5.65;1.27;;;;;;;40.97;25.63;100999.09;5052742;28;20051;-66
2022/08/04 09:50:44;;;;;;;3.10;0.95;;;;;;;40.81;25.77;101006.31;5053848;28;20086;-66
2022/08/04 09:53:09;;;;;;;3.33;1.07;;;;;;;40.74;25.75;101006.78;5035369;28;20029;-66
2022/08/04 09:55:44;;;;;;;4.83;0.97;;;;;;;41.08;25.69;101008.88;5051683;28;20276;-65
2022/08/04 09:58:38;;;;;;;9.02;1.75;;;;;;;41.19;25.58;101010.22;5051703;28;20253;-66
2022/08/04 10:01:09;;;;;;;21.35;1.80;;;;;;;40.95;26.06;101029.53;5035053;28;20040;-66
2022/08/04 10:03:37;;;;;;;2.40;1.00;;;;;;;40.84;26.33;101033.78;5051655;28;20056;-66
2022/08/04 10:06:24;;;;;;;4.47;0.88;;;;;;;40.73;25.93;101038.88;5035026;28;20289;-66
2022/08/04 10:09:06;;;;;;;9.27;1.45;;;;;;;40.56;26.96;101022.78;5034903;28;20086;-66
2022/08/04 10:11:36;;;;;;;2.95;1.05;;;;;;;40.47;26.71;101024.69;5034960;28;20024;-66
2022/08/04 10:14:16;;;;;;;3.95;0.93;;;;;;;40.43;26.43;101020.88;5034901;28;20029;-66
2022/08/04 10:16:51;;;;;;;2.28;1.30;;;;;;;40.26;27.29;101015.16;5018277;28;20028;-66
2022/08/04 10:19:26;;;;;;;3.55;0.93;;;;;;;40.07;27.03;101020.19;5034449;28;20064;-66
2022/08/04 10:22:12;;;;;;;4.93;1.48;;;;;;;39.88;27.97;101023.19;5018148;28;20048;-66
2022/08/04 10:24:55;;;;;;;2.83;1.25;;;;;;;39.62;27.75;101035.34;5018107;28;20032;-66
2022/08/04 10:27:32;;;;;;;3.25;1.30;;;;;;;39.49;27.71;101026.66;5035121;28;20032;-66
2022/08/04 10:30:09;;;;;;;4.03;1.20;;;;;;;39.33;28.03;101038.56;5052169;28;20021;-66
2022/08/04 10:32:46;;;;;;;3.72;1.10;;;;;;;39.26;28.94;101032.53;5052077;28;20111;-65
2022/08/04 10:35:16;;;;;;;7.57;1.48;;;;;;;39.13;28.94;101031.41;5053118;28;20029;-66
2022/08/04 10:38:07;;;;;;;2.55;1.10;;;;;;;39.07;28.54;101024.25;5051900;28;20115;-66
2022/08/04 10:40:43;;;;;;;7.72;1.73;;;;;;;38.93;28.56;101013.06;5035262;28;20116;-66
2022/08/04 10:43:21;;;;;;;6.57;1.35;;;;;;;38.82;28.89;101019.19;5035218;28;20087;-66
2022/08/04 10:45:51;;;;;;;3.08;1.27;;;;;;;38.65;29.37;101027.38;5051974;28;20027;-66
2022/08/04 10:48:33;;;;;;;3.20;1.17;;;;;;;38.47;29.04;101031.97;5051765;28;20028;-66
2022/08/04 10:51:05;;;;;;;1.17;1.08;;;;;;;38.29;29.25;101030.84;5035235;28;20060;-66
2022/08/04 10:53:30;;;;;;;9.45;0.95;;;;;;;38.18;29.01;101040.59;5052017;28;20124;-66
2022/08/04 10:56:02;;;;;;;1.92;1.00;;;;;;;38.10;29.16;101034.88;5051801;28;20055;-66
2022/08/04 10:58:34;;;;;;;5.07;1.55;;;;;;;38.02;29.64;101035.56;5035324;28;20032;-66
2022/08/04 11:01:01;;;;;;;7.70;1.90;;;;;;;37.87;29.20;101033.81;5051680;28;20033;-65
2022/08/04 11:03:37;;;;;;;8.00;1.60;;;;;;;37.74;29.80;101029.03;5051757;28;20029;-65
2022/08/04 11:06:03;;;;;;;8.00;1.35;;;;;;;37.66;29.95;101027.72;5051858;28;20104;-66
2022/08/04 11:08:44;;;;;;;2.40;1.10;;;;;;;37.63;30.19;101027.53;5051774;28;20025;-66
2022/08/04 11:11:12;;;;;;;4.72;1.00;;;;;;;37.61;29.93;101030.63;5051705;28;20016;-66
2022/08/04 11:13:59;;;;;;;1.52;0.95;;;;;;;37.61;29.96;101024.19;5052891;28;20029;-66
2022/08/04 11:17:01;;;;;;;5.47;1.63;;;;;;;37.57;30.71;101028.75;5051644;28;20497;-66
2022/08/04 11:19:32;;;;;;;2.25;1.63;;;;;;;37.54;30.18;101030.19;5051606;28;20521;-66
2022/08/04 11:22:04;;;;;;;4.95;1.15;;;;;;;37.51;30.23;101030.78;5052778;28;20087;-66
2022/08/04 11:24:52;;;;;;;6.03;1.60;;;;;;;37.47;30.91;101042.91;5035108;28;20029;-66
2022/08/04 11:27:34;;;;;;;3.20;1.00;;;;;;;37.43;30.09;101036.22;5051591;28;20024;-66
2022/08/04 11:30:02;;;;;;;3.33;1.23;;;;;;;37.41;30.37;101041.28;5051622;28;20560;-66
2022/08/04 11:32:43;;;;;;;3.60;1.40;;;;;;;37.47;30.27;101043.69;5052724;28;20437;-66
2022/08/04 11:35:12;;;;;;;2.80;1.70;;;;;;;37.59;30.72;101044.09;5051430;28;20078;-66
2022/08/04 11:37:49;;;;;;;10.45;1.52;;;;;;;37.80;30.14;101039.81;5051556;28;20029;-66
2022/08/04 11:40:28;;;;;;;12.48;2.10;;;;;;;38.04;29.63;101039.72;5051247;28;20021;-67
2022/08/04 11:43:03;;;;;;;8.05;1.52;;;;;;;38.34;29.70;101042.00;5051581;28;20040;-66
2022/08/04 11:45:37;;;;;;;9.32;1.17;;;;;;;38.54;30.26;101037.97;5051434;28;20021;-66
2022/08/04 11:48:24;;;;;;;4.13;1.20;;;;;;;38.61;30.30;101032.78;5051464;28;20025;-66
2022/08/04 11:50:52;;;;;;;8.40;2.22;;;;;;;38.58;30.21;101032.56;5051112;28;20028;-65
2022/08/04 11:53:20;;;;;;;5.43;1.58;;;;;;;38.55;29.97;101030.41;5034589;28;20029;-66
2022/08/04 11:55:49;;;;;;;3.22;1.00;;;;;;;38.51;29.94;101023.75;5052563;28;20106;-66
2022/08/04 11:58:14;;;;;;;2.53;1.15;;;;;;;38.53;29.72;101029.88;5054983;28;20032;-66
2022/08/04 12:00:50;;;;;;;11.60;2.78;;;;;;;38.54;29.88;101023.97;5054861;28;20033;-66
2022/08/04 12:03:37;;;;;;;4.30;1.23;;;;;;;38.56;29.67;101029.25;5038100;28;20051;-66
2022/08/04 12:06:13;;;;;;;4.20;1.35;;;;;;;38.56;30.04;101034.88;5054462;28;20025;-66
2022/08/04 12:08:57;;;;;;;5.65;1.88;;;;;;;38.66;30.47;101035.47;5054678;28;20479;-66
2022/08/04 12:11:42;;;;;;;3.40;1.10;;;;;;;38.73;29.99;101040.66;5054723;28;20021;-66